Rechercher aéroport 
image banner adimage banner adimage banner ad
image banner ad

5PN7 - Jarrett

Situé à Ivyland, United States

ICAO - 5PN7, IATA -

Données fournies par Airmate  

Information générale

Coordonnées: N40°13'51" W75°4'33"
Élévation : 210 feet MSL.
Variation magnétique : -12° East
Voir autres Aéroports à Pennsylvania

Données opérationnelles

Special qualification required
Heure actuelle UTC:
Heure actuelle locale:
Météo à : KDYL - Doylestown ( 12 km )
METAR: KDYL 152254Z AUTO 33007KT 10SM SCT046 24/13 A2977 RMK AO2 SLP078 T02440128
Voir NOTAMs / SUP AIP / TFR affectant cet aéroport [VIEW]
Fréquences de communication: [VIEW]

Pistes:

Identifiant RWYQFULongueur (ft)Largeur (ft)SurfaceLDA (ft)
121200100GRASS
301200100GRASS

Coordonnées de l'aéroport

Adresse: Ivyland United States

Vue satellite de 5PN7